Time;durP1;ratioP1;P1;durP2;ratioP2;P2;SDS_P1;SDS_P2;PMS_P1;PMS_P2;Temp;Humidity;BMP_temperature;BMP_pressure;BME280_temperature;BME280_humidity;BME280_pressure;Samples;Min_cycle;Max_cycle;Signal;HPM_P1;HPM_P2
2022/08/30 00:01:23;;;;;;;17.45;7.10;;;14.40;99.90;;;;;;5046522;28;20151;-48
2022/08/30 00:03:50;;;;;;;9.50;7.38;;;14.40;99.90;;;;;;5046267;28;20052;-49
2022/08/30 00:06:18;;;;;;;10.13;7.25;;;14.40;99.90;;;;;;5044916;28;20148;-51
2022/08/30 00:08:47;;;;;;;10.05;8.38;;;14.50;99.90;;;;;;5043750;28;20554;-52
2022/08/30 00:11:20;;;;;;;9.38;7.38;;;14.50;99.90;;;;;;5044269;28;20049;-50
2022/08/30 00:13:49;;;;;;;7.93;7.13;;;14.50;99.90;;;;;;5044248;28;20086;-48
2022/08/30 00:16:16;;;;;;;11.57;7.93;;;14.50;99.90;;;;;;5043038;28;20061;-49
2022/08/30 00:18:43;;;;;;;9.90;7.38;;;14.60;99.90;;;;;;5043850;28;20081;-49
2022/08/30 00:21:10;;;;;;;9.43;7.55;;;14.50;99.90;;;;;;5044169;28;20056;-51
2022/08/30 00:23:37;;;;;;;8.57;7.68;;;14.60;99.90;;;;;;5023687;28;20052;-51
2022/08/30 00:26:03;;;;;;;10.38;7.53;;;14.70;99.90;;;;;;5039950;28;20057;-52
2022/08/30 00:28:31;;;;;;;12.80;7.30;;;14.60;99.90;;;;;;5042244;28;20141;-49
2022/08/30 00:30:57;;;;;;;8.60;7.43;;;14.70;99.90;;;;;;5044141;28;20086;-52
2022/08/30 00:33:23;;;;;;;10.45;8.25;;;14.70;99.90;;;;;;5044122;28;20148;-57
2022/08/30 00:35:49;;;;;;;9.13;7.75;;;14.60;99.90;;;;;;5044103;28;20095;-48
2022/08/30 00:38:15;;;;;;;10.68;7.40;;;14.70;99.90;;;;;;5045146;28;20057;-49
2022/08/30 00:40:44;;;;;;;9.60;7.15;;;14.60;99.90;;;;;;5044598;28;20094;-50
2022/08/30 00:43:22;;;;;;;9.70;7.82;;;14.70;99.90;;;;;;5043990;28;20048;-52
2022/08/30 00:45:49;;;;;;;8.27;7.07;;;14.60;99.90;;;;;;5041833;28;20143;-50
2022/08/30 00:48:16;;;;;;;9.85;7.57;;;14.60;99.90;;;;;;5041918;28;20051;-51
2022/08/30 00:50:46;;;;;;;7.90;7.10;;;14.60;99.90;;;;;;5043125;28;20048;-50
2022/08/30 00:53:25;;;;;;;8.15;7.07;;;14.60;99.90;;;;;;5043250;28;20590;-48
2022/08/30 00:55:52;;;;;;;11.25;7.55;;;14.60;99.90;;;;;;5041260;28;20495;-49
2022/08/30 00:58:23;;;;;;;9.80;6.78;;;14.70;99.90;;;;;;5042310;28;20056;-49
2022/08/30 01:00:53;;;;;;;10.43;7.60;;;14.60;99.90;;;;;;5024534;28;20137;-49
2022/08/30 01:03:20;;;;;;;9.30;6.95;;;14.70;99.90;;;;;;5042235;28;20567;-50
2022/08/30 01:05:48;;;;;;;7.65;6.85;;;14.70;99.90;;;;;;5023098;28;20571;-50
2022/08/30 01:08:14;;;;;;;9.02;7.05;;;14.70;99.90;;;;;;5041802;28;20045;-50
2022/08/30 01:10:41;;;;;;;8.80;7.10;;;14.70;99.90;;;;;;5043185;28;20091;-50
2022/08/30 01:13:09;;;;;;;8.68;7.40;;;14.70;99.90;;;;;;5037798;28;20057;-47
2022/08/30 01:15:35;;;;;;;8.85;8.05;;;14.70;99.90;;;;;;5041994;28;20463;-50
2022/08/30 01:18:03;;;;;;;10.20;8.75;;;14.70;99.90;;;;;;5043071;28;20114;-50
2022/08/30 01:20:40;;;;;;;9.13;7.78;;;14.60;99.90;;;;;;5041423;28;20056;-51
2022/08/30 01:23:13;;;;;;;10.30;7.40;;;14.60;99.90;;;;;;5040391;28;20053;-49
2022/08/30 01:25:41;;;;;;;10.35;6.90;;;14.60;99.90;;;;;;5023436;28;20048;-51
2022/08/30 01:28:14;;;;;;;11.20;7.55;;;14.60;99.90;;;;;;5042710;28;20052;-49
2022/08/30 01:30:41;;;;;;;10.57;7.63;;;14.60;99.90;;;;;;5042723;28;20053;-53
2022/08/30 01:33:09;;;;;;;8.13;7.20;;;14.50;99.90;;;;;;5043417;28;20080;-53
2022/08/30 01:35:52;;;;;;;13.48;7.45;;;14.50;99.90;;;;;;5041279;28;20049;-52
2022/08/30 01:38:22;;;;;;;11.48;7.20;;;14.60;99.90;;;;;;5021050;28;20520;-48
2022/08/30 01:40:50;;;;;;;7.88;7.00;;;14.50;99.90;;;;;;5040755;28;20056;-50
2022/08/30 01:43:17;;;;;;;8.27;7.35;;;14.50;99.90;;;;;;5041821;28;20539;-54
2022/08/30 01:45:43;;;;;;;8.63;7.45;;;14.50;99.90;;;;;;5042081;28;20053;-50
2022/08/30 01:48:16;;;;;;;11.05;7.70;;;14.50;99.90;;;;;;5042786;28;20057;-54
2022/08/30 01:50:42;;;;;;;9.38;7.82;;;14.50;99.90;;;;;;5043222;28;20041;-48
2022/08/30 01:53:09;;;;;;;10.07;8.07;;;14.40;99.90;;;;;;5043945;28;20051;-54
2022/08/30 01:55:37;;;;;;;8.60;7.80;;;14.50;99.90;;;;;;5043620;28;20052;-49
2022/08/30 01:58:03;;;;;;;8.95;7.78;;;14.40;99.90;;;;;;5042947;28;20052;-51
2022/08/30 02:00:30;;;;;;;10.23;7.30;;;14.40;99.90;;;;;;5042320;28;20056;-51
2022/08/30 02:02:56;;;;;;;8.48;7.40;;;14.30;99.90;;;;;;5042054;28;20123;-49
2022/08/30 02:05:23;;;;;;;11.15;7.50;;;14.30;99.90;;;;;;5042859;28;20053;-50
2022/08/30 02:07:50;;;;;;;10.05;7.53;;;14.20;99.90;;;;;;5042412;28;20228;-50
2022/08/30 02:10:16;;;;;;;10.60;7.88;;;14.10;99.90;;;;;;5042904;28;20049;-49
2022/08/30 02:12:42;;;;;;;9.75;7.55;;;14.10;99.90;;;;;;5042834;28;20124;-48
2022/08/30 02:15:10;;;;;;;8.35;7.55;;;14.00;99.90;;;;;;5042951;28;20049;-50
2022/08/30 02:17:36;;;;;;;9.52;8.60;;;14.00;99.90;;;;;;5025164;28;20052;-49
2022/08/30 02:20:04;;;;;;;9.70;8.25;;;13.90;99.90;;;;;;5044425;28;20044;-48
2022/08/30 02:22:30;;;;;;;9.02;7.60;;;13.80;99.90;;;;;;5045928;28;20061;-50
2022/08/30 02:24:57;;;;;;;10.20;8.27;;;13.90;99.90;;;;;;5046354;28;20057;-49
2022/08/30 02:27:24;;;;;;;10.40;8.02;;;13.90;99.90;;;;;;5047434;28;20095;-50
2022/08/30 02:29:51;;;;;;;11.73;8.55;;;13.90;99.90;;;;;;5028606;28;20500;-48
2022/08/30 02:32:18;;;;;;;10.20;8.05;;;13.80;99.90;;;;;;5028834;28;20384;-48
2022/08/30 02:34:46;;;;;;;10.50;8.35;;;13.80;99.90;;;;;;5046476;28;20081;-49
2022/08/30 02:37:12;;;;;;;9.65;8.15;;;13.80;99.90;;;;;;5028375;28;20057;-49
2022/08/30 02:39:38;;;;;;;11.05;8.60;;;13.80;99.90;;;;;;5046134;28;20106;-53
2022/08/30 02:42:05;;;;;;;11.65;8.57;;;13.80;99.90;;;;;;5046499;28;20435;-50
2022/08/30 02:44:31;;;;;;;10.15;9.15;;;13.80;99.90;;;;;;5046576;28;20065;-48
2022/08/30 02:46:57;;;;;;;9.52;8.60;;;13.70;99.90;;;;;;5047092;28;20706;-50
2022/08/30 02:49:23;;;;;;;9.38;8.38;;;13.70;99.90;;;;;;5028230;28;20136;-49
2022/08/30 02:51:49;;;;;;;12.77;8.95;;;13.70;99.90;;;;;;5045291;28;20146;-51
2022/08/30 02:54:18;;;;;;;12.05;8.90;;;13.70;99.90;;;;;;5045486;28;20076;-49
2022/08/30 02:56:46;;;;;;;9.27;8.30;;;13.70;99.90;;;;;;5028349;28;20053;-50
2022/08/30 02:59:13;;;;;;;10.52;8.43;;;13.70;99.90;;;;;;5045863;28;20053;-48
2022/08/30 03:01:39;;;;;;;12.07;8.52;;;13.60;99.90;;;;;;5046039;28;20803;-51
2022/08/30 03:04:06;;;;;;;8.90;7.13;;;13.60;99.90;;;;;;5046083;28;20174;-51
2022/08/30 03:06:33;;;;;;;9.40;8.13;;;13.60;99.90;;;;;;5046343;28;20056;-48
2022/08/30 03:08:59;;;;;;;9.07;7.70;;;13.60;99.90;;;;;;5046363;28;20879;-48
2022/08/30 03:11:26;;;;;;;9.88;6.43;;;13.60;99.90;;;;;;5045787;28;20048;-49
2022/08/30 03:13:52;;;;;;;7.75;6.35;;;13.50;99.90;;;;;;5045333;28;20056;-50
2022/08/30 03:16:20;;;;;;;7.40;6.18;;;13.50;99.90;;;;;;5044283;28;20048;-49
2022/08/30 03:18:46;;;;;;;7.43;6.72;;;13.40;99.90;;;;;;5045345;28;20053;-50
2022/08/30 03:21:14;;;;;;;8.05;6.70;;;13.40;99.90;;;;;;5044935;28;20160;-48
2022/08/30 03:23:42;;;;;;;12.32;8.27;;;13.40;99.90;;;;;;5026610;28;20610;-53
2022/08/30 03:26:13;;;;;;;9.52;7.63;;;13.40;99.90;;;;;;5043793;28;20580;-51
2022/08/30 03:28:41;;;;;;;11.13;8.77;;;13.40;99.90;;;;;;5036380;28;20863;-52
2022/08/30 03:31:08;;;;;;;10.88;8.57;;;13.40;99.90;;;;;;5044683;28;20051;-48
2022/08/30 03:33:34;;;;;;;8.57;7.10;;;13.40;99.90;;;;;;5045063;28;20047;-49
2022/08/30 03:36:00;;;;;;;12.88;9.98;;;13.30;99.90;;;;;;5043138;28;20074;-50
2022/08/30 03:38:26;;;;;;;10.02;9.00;;;13.30;99.90;;;;;;5044647;28;20053;-49
2022/08/30 03:40:52;;;;;;;10.23;8.63;;;13.30;99.90;;;;;;5045137;28;20099;-49
2022/08/30 03:43:18;;;;;;;10.75;9.65;;;13.20;99.90;;;;;;5045250;28;20052;-49
2022/08/30 03:45:44;;;;;;;10.60;9.60;;;13.20;99.90;;;;;;5045148;28;20052;-48
2022/08/30 03:48:11;;;;;;;10.98;9.77;;;13.20;99.90;;;;;;5045566;28;20059;-54
2022/08/30 03:50:39;;;;;;;10.10;9.10;;;13.20;99.90;;;;;;5046255;28;20060;-51
2022/08/30 03:53:06;;;;;;;12.63;9.60;;;13.10;99.90;;;;;;5044844;28;20053;-52
2022/08/30 03:55:32;;;;;;;12.30;9.15;;;13.10;99.90;;;;;;5044043;28;20069;-48
2022/08/30 03:57:58;;;;;;;11.85;9.40;;;13.10;99.90;;;;;;5044860;28;20040;-50
2022/08/30 04:00:24;;;;;;;10.93;9.85;;;13.10;99.90;;;;;;5043922;28;20539;-48
2022/08/30 04:02:50;;;;;;;11.02;9.75;;;13.10;99.90;;;;;;5044916;28;20500;-48
2022/08/30 04:05:16;;;;;;;12.43;10.57;;;13.00;99.90;;;;;;5044724;28;20049;-50
2022/08/30 04:07:42;;;;;;;11.00;9.82;;;12.90;99.90;;;;;;5044514;28;20059;-48
2022/08/30 04:10:09;;;;;;;10.73;9.43;;;12.90;99.90;;;;;;5045530;28;20064;-51
2022/08/30 04:12:36;;;;;;;11.40;9.88;;;12.90;99.90;;;;;;5044618;28;20068;-49
2022/08/30 04:15:03;;;;;;;12.00;9.73;;;12.90;99.90;;;;;;5044074;28;20064;-49
2022/08/30 04:17:29;;;;;;;11.65;10.55;;;12.90;99.90;;;;;;5044627;28;20080;-51
2022/08/30 04:19:55;;;;;;;11.38;10.38;;;12.90;99.90;;;;;;5044302;28;20519;-49
2022/08/30 04:22:21;;;;;;;13.13;11.65;;;12.80;99.90;;;;;;5045035;28;20053;-49
2022/08/30 04:24:48;;;;;;;10.10;9.20;;;12.80;99.90;;;;;;5044774;28;20056;-49
2022/08/30 04:27:14;;;;;;;13.77;10.10;;;12.80;99.90;;;;;;5044789;28;20488;-50
2022/08/30 04:29:40;;;;;;;11.68;9.77;;;12.70;99.90;;;;;;5043210;28;20060;-51
2022/08/30 04:32:05;;;;;;;10.13;9.10;;;12.70;99.90;;;;;;5044534;28;20122;-51
2022/08/30 04:34:32;;;;;;;10.82;9.68;;;12.60;99.90;;;;;;5043692;28;20044;-47
2022/08/30 04:36:58;;;;;;;10.70;8.50;;;12.60;99.90;;;;;;5044166;28;20049;-50
2022/08/30 04:39:24;;;;;;;14.18;8.25;;;12.60;99.90;;;;;;5043926;28;20071;-50
2022/08/30 04:41:50;;;;;;;9.25;7.80;;;12.60;99.90;;;;;;5043455;28;20061;-48
2022/08/30 04:44:16;;;;;;;8.13;7.30;;;12.40;99.90;;;;;;5043416;28;20041;-49
2022/08/30 04:46:42;;;;;;;9.60;8.60;;;12.40;99.90;;;;;;5043639;28;20041;-50
2022/08/30 04:49:08;;;;;;;9.50;8.63;;;12.40;99.90;;;;;;5043361;28;20075;-49
2022/08/30 04:51:34;;;;;;;11.35;10.10;;;12.40;99.90;;;;;;5042567;28;20037;-49
2022/08/30 04:54:00;;;;;;;11.68;10.30;;;12.40;99.90;;;;;;5043385;28;20060;-50
2022/08/30 04:56:27;;;;;;;13.52;9.90;;;12.50;99.90;;;;;;5025112;28;20586;-52
2022/08/30 04:58:54;;;;;;;13.23;10.13;;;12.40;99.90;;;;;;5024851;28;20182;-48
2022/08/30 05:01:31;;;;;;;10.25;9.07;;;12.40;99.90;;;;;;5038243;28;20045;-49
2022/08/30 05:03:58;;;;;;;11.57;10.00;;;12.50;99.90;;;;;;5043569;28;20085;-47
2022/08/30 05:06:29;;;;;;;10.93;9.77;;;12.50;99.90;;;;;;5042907;28;20118;-50
2022/08/30 05:08:56;;;;;;;11.30;9.52;;;12.50;99.90;;;;;;5042573;28;20144;-50
2022/08/30 05:11:22;;;;;;;10.18;9.18;;;12.50;99.90;;;;;;5042212;28;20127;-47
2022/08/30 05:13:49;;;;;;;12.48;9.63;;;12.60;99.90;;;;;;5043598;28;20044;-51
2022/08/30 05:16:16;;;;;;;12.75;10.15;;;12.60;99.90;;;;;;5043220;28;20048;-49
2022/08/30 05:18:52;;;;;;;11.45;9.93;;;12.60;99.90;;;;;;5042732;28;20064;-48
2022/08/30 05:21:24;;;;;;;13.18;11.05;;;12.70;99.90;;;;;;5042261;28;20496;-48
2022/08/30 05:23:54;;;;;;;11.45;10.27;;;12.80;99.90;;;;;;5043582;28;20098;-50
2022/08/30 05:26:27;;;;;;;10.77;9.73;;;13.00;99.90;;;;;;5024417;28;20138;-49
2022/08/30 05:28:52;;;;;;;10.00;9.03;;;13.30;99.90;;;;;;5022648;28;20140;-50
2022/08/30 05:31:31;;;;;;;11.45;9.48;;;13.70;99.90;;;;;;5043077;28;20357;-47
2022/08/30 05:33:58;;;;;;;9.60;8.60;;;14.30;99.90;;;;;;5043548;28;20491;-48
2022/08/30 05:36:27;;;;;;;8.35;7.20;;;15.60;99.90;;;;;;5043323;28;20594;-48
2022/08/30 05:38:54;;;;;;;8.70;7.15;;;16.90;99.90;;;;;;5042689;28;20040;-50
2022/08/30 05:41:22;;;;;;;7.72;6.88;;;18.10;99.90;;;;;;5042251;28;20559;-49
2022/08/30 05:43:50;;;;;;;8.68;7.07;;;19.20;99.90;;;;;;5022784;28;20060;-48
2022/08/30 05:46:18;;;;;;;10.88;6.72;;;20.20;99.90;;;;;;5042419;28;20129;-49
2022/08/30 05:48:45;;;;;;;5.93;5.40;;;21.20;99.90;;;;;;5042266;28;20057;-51
2022/08/30 05:51:15;;;;;;;7.78;5.00;;;22.10;99.90;;;;;;5043360;28;20052;-49
2022/08/30 05:53:44;;;;;;;5.72;4.95;;;22.80;99.90;;;;;;5042628;28;20064;-49
2022/08/30 05:56:17;;;;;;;8.18;5.50;;;23.30;99.90;;;;;;5043329;28;20052;-51
2022/08/30 05:58:43;;;;;;;6.82;4.72;;;23.90;99.90;;;;;;5043220;28;20057;-49
2022/08/30 06:01:30;;;;;;;5.30;4.47;;;24.30;99.90;;;;;;5025180;28;20523;-52
2022/08/30 06:03:59;;;;;;;5.72;4.72;;;24.80;97.80;;;;;;5034760;28;20051;-49
2022/08/30 06:06:27;;;;;;;6.45;4.53;;;25.10;99.10;;;;;;5042337;28;20593;-49
2022/08/30 06:08:54;;;;;;;6.72;5.13;;;25.70;99.10;;;;;;5042828;28;20059;-52
2022/08/30 06:11:22;;;;;;;6.40;4.47;;;26.10;97.70;;;;;;5042870;28;20056;-51
2022/08/30 06:13:49;;;;;;;5.35;4.25;;;26.50;97.10;;;;;;5042190;28;20045;-49
2022/08/30 06:16:20;;;;;;;6.32;4.40;;;27.00;95.60;;;;;;5042702;28;20544;-55
2022/08/30 06:18:47;;;;;;;7.18;4.28;;;27.20;95.30;;;;;;5043193;28;20178;-51
2022/08/30 06:21:25;;;;;;;5.15;4.10;;;27.60;95.30;;;;;;5042882;28;20069;-53
2022/08/30 06:23:52;;;;;;;5.88;4.50;;;28.20;94.00;;;;;;5023987;28;20508;-49
2022/08/30 06:26:19;;;;;;;6.50;4.03;;;27.80;93.70;;;;;;5041653;28;20103;-50
2022/08/30 06:28:46;;;;;;;4.45;4.00;;;28.10;93.90;;;;;;5043231;28;20128;-53
2022/08/30 06:31:14;;;;;;;5.78;4.50;;;28.20;93.40;;;;;;5043207;28;20051;-52
2022/08/30 06:33:41;;;;;;;7.13;4.30;;;28.70;93.10;;;;;;5024566;28;20060;-53
2022/08/30 06:36:18;;;;;;;5.38;3.90;;;28.30;93.10;;;;;;5042432;28;20071;-53
2022/08/30 06:38:44;;;;;;;6.32;4.35;;;28.30;93.40;;;;;;5042875;28;20511;-52
2022/08/30 06:41:14;;;;;;;5.10;3.95;;;28.40;92.80;;;;;;5042561;28;20067;-52
2022/08/30 06:43:40;;;;;;;7.88;4.22;;;28.70;92.40;;;;;;5041687;28;20041;-57
2022/08/30 06:46:09;;;;;;;5.70;3.83;;;28.20;92.00;;;;;;5024513;28;20111;-53
2022/08/30 06:48:35;;;;;;;6.88;3.80;;;28.10;91.80;;;;;;5043640;28;20219;-50
2022/08/30 06:51:02;;;;;;;5.30;3.75;;;28.00;92.10;;;;;;5042990;28;20492;-53
2022/08/30 06:53:30;;;;;;;8.75;4.47;;;28.10;92.20;;;;;;5042978;28;20057;-54
2022/08/30 06:55:57;;;;;;;5.68;3.72;;;28.10;91.90;;;;;;5041793;28;20048;-51
2022/08/30 06:58:24;;;;;;;4.47;3.28;;;28.40;92.00;;;;;;5043099;28;20068;-50
2022/08/30 07:00:50;;;;;;;5.47;3.20;;;28.50;91.60;;;;;;5041841;28;20071;-53
2022/08/30 07:03:15;;;;;;;5.57;3.22;;;28.00;91.40;;;;;;5041058;28;20064;-53
2022/08/30 07:05:41;;;;;;;8.10;4.15;;;28.40;92.10;;;;;;5043934;28;20057;-51
2022/08/30 07:08:07;;;;;;;5.57;3.20;;;28.40;91.30;;;;;;5046818;28;20041;-50
2022/08/30 07:10:36;;;;;;;7.15;3.70;;;28.40;91.10;;;;;;5044350;28;20494;-52
2022/08/30 07:13:02;;;;;;;4.88;3.50;;;28.20;91.10;;;;;;5042304;28;20103;-50
2022/08/30 07:15:28;;;;;;;6.05;3.17;;;27.80;91.40;;;;;;5044503;28;20095;-52
2022/08/30 07:20:45;;;;;;;8.80;3.50;;;25.70;92.60;;;;;;5042295;28;20345;-51
2022/08/30 07:23:15;;;;;;;7.78;3.30;;;24.80;93.50;;;;;;5044069;28;20059;-52
2022/08/30 07:25:41;;;;;;;6.65;3.25;;;23.90;94.40;;;;;;5043936;28;20495;-53
2022/08/30 07:28:08;;;;;;;5.85;3.10;;;23.60;94.80;;;;;;5044754;28;20522;-55
2022/08/30 07:30:35;;;;;;;5.75;3.08;;;23.30;95.60;;;;;;5043683;28;20049;-56
2022/08/30 07:33:02;;;;;;;5.25;2.80;;;23.00;95.80;;;;;;5044456;28;20060;-51
2022/08/30 07:35:28;;;;;;;3.83;2.88;;;22.90;95.40;;;;;;5043729;28;20044;-51
2022/08/30 07:37:54;;;;;;;5.57;2.45;;;22.50;96.30;;;;;;5043735;28;20049;-53
2022/08/30 07:40:20;;;;;;;5.78;2.53;;;22.30;96.20;;;;;;5043791;28;20044;-51
2022/08/30 07:42:46;;;;;;;4.50;2.40;;;22.10;96.30;;;;;;5025350;28;20061;-54
2022/08/30 07:45:12;;;;;;;3.40;2.28;;;22.00;96.30;;;;;;5043497;28;20049;-57
2022/08/30 07:47:41;;;;;;;3.78;2.30;;;21.80;96.50;;;;;;5026069;28;20049;-55
2022/08/30 07:50:07;;;;;;;5.35;2.70;;;21.70;96.80;;;;;;5045152;28;20149;-54
2022/08/30 07:52:34;;;;;;;4.82;2.60;;;21.50;97.10;;;;;;5042088;28;20084;-55
2022/08/30 07:55:01;;;;;;;5.55;2.42;;;21.50;97.60;;;;;;5043907;28;20044;-55
2022/08/30 07:57:30;;;;;;;3.97;2.05;;;21.70;97.30;;;;;;5043302;28;20076;-51
2022/08/30 07:59:55;;;;;;;3.78;1.90;;;21.50;96.00;;;;;;5043577;28;20045;-55
2022/08/30 08:02:22;;;;;;;3.92;2.75;;;21.30;96.10;;;;;;5041002;28;20499;-54
2022/08/30 08:04:48;;;;;;;5.50;2.67;;;21.20;96.30;;;;;;5045056;28;20045;-53
2022/08/30 08:07:14;;;;;;;4.93;2.38;;;21.10;96.40;;;;;;5046244;28;20412;-55
2022/08/30 08:09:40;;;;;;;6.32;2.42;;;21.10;96.40;;;;;;5028954;28;20056;-55
2022/08/30 08:12:07;;;;;;;6.70;2.25;;;21.00;96.40;;;;;;5048260;28;20057;-54
2022/08/30 08:14:34;;;;;;;4.82;2.70;;;20.90;96.80;;;;;;5047215;28;20087;-52
2022/08/30 08:17:01;;;;;;;5.05;2.38;;;20.90;96.80;;;;;;5044773;28;20410;-55
2022/08/30 08:19:27;;;;;;;4.05;2.45;;;21.00;96.90;;;;;;5044416;28;20454;-56
2022/08/30 08:21:55;;;;;;;3.47;1.92;;;21.00;96.80;;;;;;5045333;28;20053;-56
2022/08/30 08:24:22;;;;;;;5.30;2.40;;;21.10;96.90;;;;;;5044329;28;20053;-56
2022/08/30 08:26:49;;;;;;;5.00;2.38;;;21.20;97.50;;;;;;5043855;28;20427;-56
2022/08/30 08:29:16;;;;;;;5.00;2.40;;;21.20;97.00;;;;;;5044072;28;20068;-56
2022/08/30 08:31:42;;;;;;;4.65;2.80;;;21.40;97.20;;;;;;5045049;28;20053;-57
2022/08/30 08:34:10;;;;;;;5.28;2.80;;;21.50;96.90;;;;;;5043928;28;20052;-56
2022/08/30 08:36:35;;;;;;;7.93;3.15;;;21.40;96.60;;;;;;5044776;28;20787;-55
2022/08/30 08:39:05;;;;;;;6.65;2.67;;;21.50;97.10;;;;;;5045023;28;20049;-55
2022/08/30 08:41:57;;;;;;;4.05;2.47;;;21.70;97.20;;;;;;5045588;28;20045;-54
2022/08/30 08:44:36;;;;;;;3.80;1.90;;;21.90;96.60;;;;;;5043409;28;20840;-57
2022/08/30 08:47:10;;;;;;;4.75;2.10;;;21.90;96.60;;;;;;5043961;28;20048;-58
2022/08/30 08:49:39;;;;;;;4.07;2.53;;;22.00;95.70;;;;;;5045530;28;20055;-57
2022/08/30 08:55:11;;;;;;;4.63;2.40;;;22.00;95.20;;;;;;5044468;28;20064;-58
2022/08/30 08:57:37;;;;;;;4.28;2.30;;;22.00;95.10;;;;;;5044759;28;20135;-58
2022/08/30 09:00:09;;;;;;;4.47;2.75;;;22.10;95.00;;;;;;5045379;28;20068;-57
2022/08/30 09:02:45;;;;;;;3.65;2.17;;;22.20;95.20;;;;;;5045719;28;20041;-59
2022/08/30 09:05:20;;;;;;;3.53;2.40;;;22.30;95.00;;;;;;5025014;28;20065;-58
2022/08/30 09:07:59;;;;;;;6.45;2.70;;;22.60;95.30;;;;;;5043687;28;20090;-58
2022/08/30 09:10:28;;;;;;;4.38;2.00;;;22.70;94.30;;;;;;5043990;28;20095;-58
2022/08/30 09:12:54;;;;;;;6.40;2.30;;;22.70;94.40;;;;;;5044626;28;20148;-58
2022/08/30 09:15:27;;;;;;;5.07;2.58;;;22.40;94.10;;;;;;5026541;28;20165;-58
2022/08/30 09:18:05;;;;;;;5.00;2.05;;;22.40;94.50;;;;;;5043014;28;20045;-58
2022/08/30 09:20:37;;;;;;;5.57;2.03;;;22.70;95.00;;;;;;5043161;28;20161;-58
2022/08/30 09:23:31;;;;;;;3.97;2.20;;;22.90;95.10;;;;;;5024693;28;20088;-58
2022/08/30 09:26:06;;;;;;;8.57;2.53;;;23.10;94.60;;;;;;5045321;28;20445;-58
2022/08/30 09:28:42;;;;;;;4.60;2.38;;;23.00;94.10;;;;;;5047332;28;20044;-58
2022/08/30 09:31:21;;;;;;;4.05;2.30;;;23.00;93.80;;;;;;5023423;28;20565;-58
2022/08/30 09:33:54;;;;;;;6.45;2.55;;;22.60;93.60;;;;;;5040862;28;20430;-59
2022/08/30 09:36:45;;;;;;;3.10;2.28;;;22.20;93.70;;;;;;5042348;28;20745;-58
2022/08/30 09:39:25;;;;;;;5.50;2.20;;;22.10;94.30;;;;;;5042721;28;20044;-60
2022/08/30 09:41:52;;;;;;;3.88;1.95;;;22.20;94.20;;;;;;5038006;28;20051;-58
2022/08/30 09:44:21;;;;;;;5.75;2.38;;;21.90;93.80;;;;;;5042774;28;20072;-58
2022/08/30 09:47:00;;;;;;;3.92;2.33;;;22.00;94.00;;;;;;5044054;28;20045;-58
2022/08/30 09:49:30;;;;;;;3.33;1.90;;;22.10;94.00;;;;;;5043249;28;20729;-58
2022/08/30 09:52:31;;;;;;;3.28;2.20;;;22.00;93.60;;;;;;5043242;28;20530;-59
2022/08/30 09:55:06;;;;;;;5.57;2.03;;;22.10;93.90;;;;;;5044292;28;20049;-58
2022/08/30 09:57:40;;;;;;;3.70;2.05;;;22.20;93.50;;;;;;5042803;28;20700;-57
2022/08/30 10:00:30;;;;;;;3.15;2.03;;;22.20;93.20;;;;;;5044114;28;20057;-57
2022/08/30 10:03:06;;;;;;;4.57;2.10;;;22.30;93.80;;;;;;5044575;28;20057;-58
2022/08/30 10:05:57;;;;;;;3.13;2.05;;;22.60;93.70;;;;;;5044906;28;20524;-59
2022/08/30 10:09:12;;;;;;;5.05;1.95;;;22.60;92.80;;;;;;5042007;28;20051;-58
2022/08/30 10:11:56;;;;;;;3.50;2.67;;;22.80;93.10;;;;;;5020012;28;20551;-59
2022/08/30 10:14:50;;;;;;;4.35;1.88;;;22.90;93.10;;;;;;5001416;28;20050;-58
2022/08/30 10:17:33;;;;;;;3.17;1.80;;;22.90;92.90;;;;;;5013545;28;20073;-59
2022/08/30 10:20:04;;;;;;;7.35;2.45;;;23.10;92.80;;;;;;4975035;28;20160;-58
2022/08/30 10:22:55;;;;;;;2.90;1.92;;;23.00;92.80;;;;;;5021876;28;20057;-58
2022/08/30 10:25:32;;;;;;;5.53;2.42;;;23.10;92.50;;;;;;5021982;28;20057;-59
2022/08/30 10:28:07;;;;;;;4.72;2.20;;;23.00;92.80;;;;;;5021360;28;20095;-58
2022/08/30 10:30:39;;;;;;;4.38;2.33;;;22.90;92.20;;;;;;5019411;28;20619;-58
2022/08/30 10:33:09;;;;;;;11.07;2.83;;;22.90;92.80;;;;;;5021895;28;20151;-58
2022/08/30 10:35:54;;;;;;;5.10;2.30;;;23.00;92.90;;;;;;5004213;28;20086;-59
2022/08/30 10:38:32;;;;;;;2.53;1.92;;;22.90;93.10;;;;;;5022138;28;20913;-59
2022/08/30 10:41:31;;;;;;;4.00;2.20;;;22.90;92.60;;;;;;5021273;28;20635;-58
2022/08/30 10:44:12;;;;;;;4.28;2.20;;;22.90;92.40;;;;;;5025388;28;20169;-58
2022/08/30 10:47:04;;;;;;;4.70;2.65;;;22.70;93.10;;;;;;5008836;28;20133;-59
2022/08/30 10:49:37;;;;;;;4.30;2.50;;;22.60;92.70;;;;;;5047503;28;20053;-58
2022/08/30 10:52:16;;;;;;;5.60;2.10;;;22.80;93.20;;;;;;5045389;28;20079;-58
2022/08/30 10:55:30;;;;;;;3.67;2.15;;;22.90;92.50;;;;;;5048113;28;20052;-59
2022/08/30 10:58:01;;;;;;;6.95;2.22;;;23.10;93.00;;;;;;4942656;29;20534;-58
2022/08/30 11:00:50;;;;;;;3.42;2.13;;;23.20;91.60;;;;;;4944441;29;20043;-58
2022/08/30 11:03:48;;;;;;;5.43;2.13;;;23.20;91.60;;;;;;4939450;29;20070;-59
2022/08/30 11:06:51;;;;;;;3.53;2.13;;;23.20;91.40;;;;;;4936166;29;20051;-58
2022/08/30 11:09:44;;;;;;;3.83;2.10;;;23.10;91.10;;;;;;4926467;28;20462;-60
2022/08/30 11:12:41;;;;;;;4.75;2.10;;;23.10;91.20;;;;;;4936297;29;20753;-58
2022/08/30 11:15:22;;;;;;;3.38;1.95;;;23.00;91.20;;;;;;4939030;28;20498;-58
2022/08/30 11:18:09;;;;;;;11.45;2.47;;;23.00;91.40;;;;;;4935435;29;20055;-58
2022/08/30 11:20:38;;;;;;;5.10;2.05;;;23.20;91.40;;;;;;4940697;29;20059;-58
2022/08/30 11:23:18;;;;;;;9.95;2.42;;;23.10;91.10;;;;;;4935779;28;20146;-58
2022/08/30 11:26:04;;;;;;;3.72;2.08;;;22.90;91.30;;;;;;4945362;28;20062;-58
2022/08/30 11:28:36;;;;;;;4.22;2.08;;;22.90;90.40;;;;;;4944334;28;20140;-58
2022/08/30 11:31:27;;;;;;;6.38;2.67;;;23.00;90.20;;;;;;4940279;28;20043;-58
2022/08/30 11:33:58;;;;;;;3.88;2.03;;;23.10;90.40;;;;;;4943272;28;20230;-58
2022/08/30 11:36:31;;;;;;;4.13;2.30;;;23.20;90.80;;;;;;5046646;28;20574;-57
2022/08/30 11:39:25;;;;;;;4.43;1.92;;;23.30;91.20;;;;;;5046659;28;20155;-55
2022/08/30 11:42:28;;;;;;;6.00;2.20;;;23.20;90.30;;;;;;5041945;28;20236;-59
2022/08/30 11:45:15;;;;;;;;;;;23.00;89.00;;;;;;5046456;28;20048;-59
2022/08/30 11:48:04;;;;;;;3.45;2.25;;;23.10;89.90;;;;;;4983392;28;20692;-60
2022/08/30 11:50:54;;;;;;;6.80;2.13;;;23.10;90.20;;;;;;4983531;28;20501;-59
2022/08/30 11:53:36;;;;;;;4.47;2.00;;;23.30;90.50;;;;;;4984021;28;20051;-59
2022/08/30 11:56:32;;;;;;;3.33;1.60;;;23.40;90.60;;;;;;4983124;28;20050;-59
2022/08/30 11:59:17;;;;;;;8.02;2.00;;;23.40;88.80;;;;;;4968219;28;20070;-59
2022/08/30 12:01:44;;;;;;;2.78;1.63;;;23.20;88.70;;;;;;4968155;28;20546;-59
2022/08/30 12:04:16;;;;;;;2.60;1.83;;;23.20;89.10;;;;;;4983642;28;20149;-59
2022/08/30 12:06:46;;;;;;;3.60;1.88;;;23.20;88.80;;;;;;4983131;28;20046;-59
2022/08/30 12:09:24;;;;;;;4.25;2.10;;;23.20;89.70;;;;;;4984918;28;20104;-59
2022/08/30 12:12:02;;;;;;;6.13;2.40;;;23.20;89.60;;;;;;4985353;28;20058;-59
2022/08/30 12:14:34;;;;;;;3.58;1.77;;;23.30;89.10;;;;;;4968893;28;20069;-59
2022/08/30 12:20:49;;;;;;;3.63;1.92;;;23.40;90.80;;;;;;4976755;28;20449;-59
2022/08/30 12:23:19;;;;;;;3.67;1.80;;;23.20;90.10;;;;;;4981747;28;20109;-62
2022/08/30 12:25:48;;;;;;;3.22;1.60;;;23.20;90.20;;;;;;5016538;28;20068;-59
2022/08/30 12:28:24;;;;;;;2.92;1.75;;;23.30;90.10;;;;;;5005081;28;20053;-58
2022/08/30 12:30:52;;;;;;;3.10;1.70;;;23.30;90.60;;;;;;5016173;28;20049;-58
2022/08/30 12:33:33;;;;;;;4.90;1.60;;;23.20;90.00;;;;;;5017377;28;20401;-56
2022/08/30 12:36:00;;;;;;;3.70;1.90;;;23.30;91.10;;;;;;5015422;28;20060;-59
2022/08/30 12:38:28;;;;;;;2.88;1.92;;;23.30;90.40;;;;;;5015002;28;20517;-58
2022/08/30 12:41:00;;;;;;;7.32;1.60;;;23.40;90.60;;;;;;5014571;28;20103;-59
2022/08/30 12:43:25;;;;;;;5.10;1.92;;;23.40;90.10;;;;;;5014223;28;20056;-58
2022/08/30 12:45:53;;;;;;;2.65;1.50;;;23.40;89.90;;;;;;5015795;28;20496;-58
2022/08/30 12:48:20;;;;;;;7.65;2.13;;;23.40;90.00;;;;;;5010406;28;20072;-58
2022/08/30 12:50:59;;;;;;;3.00;1.70;;;23.40;90.00;;;;;;5015231;28;20064;-58
2022/08/30 12:53:36;;;;;;;3.05;1.85;;;23.50;89.50;;;;;;5033670;28;20489;-58
2022/08/30 12:56:14;;;;;;;5.10;2.17;;;23.50;90.40;;;;;;5015834;28;20064;-58
2022/08/30 12:58:55;;;;;;;7.40;1.98;;;23.60;90.20;;;;;;5035512;28;20128;-58
2022/08/30 13:01:35;;;;;;;2.08;1.40;;;23.70;90.30;;;;;;5034957;28;20174;-59
2022/08/30 13:04:12;;;;;;;4.85;1.90;;;23.70;90.20;;;;;;5033702;28;20053;-58
2022/08/30 13:06:42;;;;;;;3.13;1.65;;;23.60;90.30;;;;;;5020244;28;20455;-58
2022/08/30 13:09:28;;;;;;;4.53;1.50;;;23.50;90.20;;;;;;5038187;28;20387;-58
2022/08/30 13:11:55;;;;;;;5.13;1.95;;;23.40;90.10;;;;;;5024815;28;20412;-58
2022/08/30 13:14:30;;;;;;;6.35;1.88;;;23.30;89.20;;;;;;5039312;28;20602;-58